sensor_id;sensor_type;location;lat;lon;timestamp;P1;durP1;ratioP1;P2;durP2;ratioP2
5022;SDS011;2530;47.990;7.866;2022-12-18T00:01:53;23.15;;;15.50;;
5022;SDS011;2530;47.990;7.866;2022-12-18T00:04:22;21.58;;;15.30;;
5022;SDS011;2530;47.990;7.866;2022-12-18T00:06:49;26.65;;;16.08;;
5022;SDS011;2530;47.990;7.866;2022-12-18T00:09:15;27.10;;;15.60;;
5022;SDS011;2530;47.990;7.866;2022-12-18T00:11:41;22.88;;;15.20;;
5022;SDS011;2530;47.990;7.866;2022-12-18T00:14:07;23.42;;;15.00;;
5022;SDS011;2530;47.990;7.866;2022-12-18T00:16:33;23.00;;;15.07;;
5022;SDS011;2530;47.990;7.866;2022-12-18T00:19:01;22.50;;;15.63;;
5022;SDS011;2530;47.990;7.866;2022-12-18T00:21:28;23.15;;;15.20;;
5022;SDS011;2530;47.990;7.866;2022-12-18T00:23:55;21.65;;;15.20;;
5022;SDS011;2530;47.990;7.866;2022-12-18T00:26:31;24.60;;;15.52;;
5022;SDS011;2530;47.990;7.866;2022-12-18T00:28:58;20.13;;;13.95;;
5022;SDS011;2530;47.990;7.866;2022-12-18T00:31:29;24.65;;;15.70;;
5022;SDS011;2530;47.990;7.866;2022-12-18T00:33:55;24.50;;;15.43;;
5022;SDS011;2530;47.990;7.866;2022-12-18T00:36:22;22.77;;;15.70;;
5022;SDS011;2530;47.990;7.866;2022-12-18T00:38:50;22.83;;;16.00;;
5022;SDS011;2530;47.990;7.866;2022-12-18T00:41:18;23.88;;;15.63;;
5022;SDS011;2530;47.990;7.866;2022-12-18T00:44:04;22.23;;;15.55;;
5022;SDS011;2530;47.990;7.866;2022-12-18T00:46:31;21.67;;;15.82;;
5022;SDS011;2530;47.990;7.866;2022-12-18T00:48:57;23.80;;;15.43;;
5022;SDS011;2530;47.990;7.866;2022-12-18T00:51:23;24.10;;;16.05;;
5022;SDS011;2530;47.990;7.866;2022-12-18T00:53:49;20.30;;;15.23;;
5022;SDS011;2530;47.990;7.866;2022-12-18T00:56:15;24.07;;;16.20;;
5022;SDS011;2530;47.990;7.866;2022-12-18T00:58:40;23.60;;;15.47;;
5022;SDS011;2530;47.990;7.866;2022-12-18T01:01:06;22.10;;;15.30;;
5022;SDS011;2530;47.990;7.866;2022-12-18T01:03:32;23.10;;;16.38;;
5022;SDS011;2530;47.990;7.866;2022-12-18T01:05:57;23.60;;;16.47;;
5022;SDS011;2530;47.990;7.866;2022-12-18T01:08:23;21.48;;;15.35;;
5022;SDS011;2530;47.990;7.866;2022-12-18T01:10:49;21.20;;;14.80;;
5022;SDS011;2530;47.990;7.866;2022-12-18T01:13:14;21.80;;;15.30;;
5022;SDS011;2530;47.990;7.866;2022-12-18T01:15:40;19.63;;;14.37;;
5022;SDS011;2530;47.990;7.866;2022-12-18T01:18:12;20.30;;;15.38;;
5022;SDS011;2530;47.990;7.866;2022-12-18T01:20:38;20.33;;;14.90;;
5022;SDS011;2530;47.990;7.866;2022-12-18T01:23:03;22.92;;;16.15;;
5022;SDS011;2530;47.990;7.866;2022-12-18T01:25:29;19.55;;;15.40;;
5022;SDS011;2530;47.990;7.866;2022-12-18T01:27:54;21.98;;;15.82;;
5022;SDS011;2530;47.990;7.866;2022-12-18T01:30:20;23.10;;;15.03;;
5022;SDS011;2530;47.990;7.866;2022-12-18T01:32:45;21.37;;;15.93;;
5022;SDS011;2530;47.990;7.866;2022-12-18T01:35:11;21.67;;;15.17;;
5022;SDS011;2530;47.990;7.866;2022-12-18T01:37:36;22.77;;;15.07;;
5022;SDS011;2530;47.990;7.866;2022-12-18T01:40:02;23.13;;;15.57;;
5022;SDS011;2530;47.990;7.866;2022-12-18T01:42:27;20.80;;;14.95;;
5022;SDS011;2530;47.990;7.866;2022-12-18T01:49:54;21.77;;;15.32;;
5022;SDS011;2530;47.990;7.866;2022-12-18T01:52:20;21.52;;;15.57;;
5022;SDS011;2530;47.990;7.866;2022-12-18T01:54:47;23.40;;;16.15;;
5022;SDS011;2530;47.990;7.866;2022-12-18T01:57:14;23.40;;;15.85;;
5022;SDS011;2530;47.990;7.866;2022-12-18T01:59:40;22.25;;;15.20;;
5022;SDS011;2530;47.990;7.866;2022-12-18T02:02:09;20.58;;;14.98;;
5022;SDS011;2530;47.990;7.866;2022-12-18T02:04:35;21.48;;;15.60;;
5022;SDS011;2530;47.990;7.866;2022-12-18T02:07:16;21.03;;;14.77;;
5022;SDS011;2530;47.990;7.866;2022-12-18T02:10:06;21.27;;;15.88;;
5022;SDS011;2530;47.990;7.866;2022-12-18T02:18:10;20.75;;;15.18;;
5022;SDS011;2530;47.990;7.866;2022-12-18T02:20:57;20.75;;;15.07;;
5022;SDS011;2530;47.990;7.866;2022-12-18T02:23:38;19.95;;;14.45;;
5022;SDS011;2530;47.990;7.866;2022-12-18T02:28:45;22.73;;;15.25;;
5022;SDS011;2530;47.990;7.866;2022-12-18T02:31:18;23.20;;;16.42;;
5022;SDS011;2530;47.990;7.866;2022-12-18T02:33:49;20.97;;;15.23;;
5022;SDS011;2530;47.990;7.866;2022-12-18T02:36:16;19.08;;;14.93;;
5022;SDS011;2530;47.990;7.866;2022-12-18T02:38:45;21.15;;;15.25;;
5022;SDS011;2530;47.990;7.866;2022-12-18T02:41:11;22.08;;;15.30;;
5022;SDS011;2530;47.990;7.866;2022-12-18T02:43:39;22.33;;;14.80;;
5022;SDS011;2530;47.990;7.866;2022-12-18T02:46:20;20.73;;;15.13;;
5022;SDS011;2530;47.990;7.866;2022-12-18T02:49:47;19.27;;;14.35;;
5022;SDS011;2530;47.990;7.866;2022-12-18T02:52:42;20.00;;;15.00;;
5022;SDS011;2530;47.990;7.866;2022-12-18T02:55:17;20.98;;;14.82;;
5022;SDS011;2530;47.990;7.866;2022-12-18T03:00:39;21.70;;;14.80;;
5022;SDS011;2530;47.990;7.866;2022-12-18T03:03:18;20.90;;;15.18;;
5022;SDS011;2530;47.990;7.866;2022-12-18T03:05:53;22.90;;;15.32;;
5022;SDS011;2530;47.990;7.866;2022-12-18T03:08:28;21.37;;;14.70;;
5022;SDS011;2530;47.990;7.866;2022-12-18T03:11:03;22.40;;;15.27;;
5022;SDS011;2530;47.990;7.866;2022-12-18T03:16:12;23.35;;;15.65;;
5022;SDS011;2530;47.990;7.866;2022-12-18T03:18:46;21.27;;;14.80;;
5022;SDS011;2530;47.990;7.866;2022-12-18T03:21:14;20.90;;;15.40;;
5022;SDS011;2530;47.990;7.866;2022-12-18T03:23:47;21.93;;;15.10;;
5022;SDS011;2530;47.990;7.866;2022-12-18T03:26:16;24.00;;;16.05;;
5022;SDS011;2530;47.990;7.866;2022-12-18T03:28:55;25.48;;;15.77;;
5022;SDS011;2530;47.990;7.866;2022-12-18T03:31:25;23.08;;;15.25;;
5022;SDS011;2530;47.990;7.866;2022-12-18T03:33:54;22.20;;;15.55;;
5022;SDS011;2530;47.990;7.866;2022-12-18T03:36:23;24.20;;;15.88;;
5022;SDS011;2530;47.990;7.866;2022-12-18T03:38:49;20.77;;;15.20;;
5022;SDS011;2530;47.990;7.866;2022-12-18T03:52:14;20.73;;;14.70;;
5022;SDS011;2530;47.990;7.866;2022-12-18T03:55:00;22.65;;;15.40;;
5022;SDS011;2530;47.990;7.866;2022-12-18T03:57:28;22.00;;;14.55;;
5022;SDS011;2530;47.990;7.866;2022-12-18T03:59:56;22.52;;;15.13;;
5022;SDS011;2530;47.990;7.866;2022-12-18T04:02:25;20.15;;;14.70;;
5022;SDS011;2530;47.990;7.866;2022-12-18T04:04:52;21.15;;;14.70;;
5022;SDS011;2530;47.990;7.866;2022-12-18T04:07:20;21.25;;;14.27;;
5022;SDS011;2530;47.990;7.866;2022-12-18T04:09:48;20.17;;;13.65;;
5022;SDS011;2530;47.990;7.866;2022-12-18T04:12:15;22.05;;;14.93;;
5022;SDS011;2530;47.990;7.866;2022-12-18T04:14:40;21.27;;;14.73;;
5022;SDS011;2530;47.990;7.866;2022-12-18T04:17:06;23.20;;;15.53;;
5022;SDS011;2530;47.990;7.866;2022-12-18T04:19:31;21.00;;;14.10;;
5022;SDS011;2530;47.990;7.866;2022-12-18T04:21:57;18.00;;;13.70;;
5022;SDS011;2530;47.990;7.866;2022-12-18T04:24:22;18.42;;;13.05;;
5022;SDS011;2530;47.990;7.866;2022-12-18T04:26:48;18.70;;;13.80;;
5022;SDS011;2530;47.990;7.866;2022-12-18T04:29:13;19.23;;;13.67;;
5022;SDS011;2530;47.990;7.866;2022-12-18T04:31:39;19.57;;;13.80;;
5022;SDS011;2530;47.990;7.866;2022-12-18T04:34:04;19.13;;;13.37;;
5022;SDS011;2530;47.990;7.866;2022-12-18T04:36:30;20.48;;;13.70;;
5022;SDS011;2530;47.990;7.866;2022-12-18T04:38:55;16.23;;;11.77;;
5022;SDS011;2530;47.990;7.866;2022-12-18T04:41:21;17.90;;;12.67;;
5022;SDS011;2530;47.990;7.866;2022-12-18T04:43:47;17.07;;;12.13;;
5022;SDS011;2530;47.990;7.866;2022-12-18T04:46:13;16.50;;;12.88;;
5022;SDS011;2530;47.990;7.866;2022-12-18T04:48:38;16.48;;;12.60;;
5022;SDS011;2530;47.990;7.866;2022-12-18T04:51:04;18.23;;;12.70;;
5022;SDS011;2530;47.990;7.866;2022-12-18T04:53:30;17.90;;;12.80;;
5022;SDS011;2530;47.990;7.866;2022-12-18T04:56:30;15.30;;;12.15;;
5022;SDS011;2530;47.990;7.866;2022-12-18T04:58:48;18.25;;;12.30;;
5022;SDS011;2530;47.990;7.866;2022-12-18T05:01:15;17.60;;;12.10;;
5022;SDS011;2530;47.990;7.866;2022-12-18T05:03:42;17.05;;;12.20;;
5022;SDS011;2530;47.990;7.866;2022-12-18T05:06:08;16.70;;;12.47;;
5022;SDS011;2530;47.990;7.866;2022-12-18T05:08:34;16.55;;;11.40;;
5022;SDS011;2530;47.990;7.866;2022-12-18T05:13:33;15.77;;;11.80;;
5022;SDS011;2530;47.990;7.866;2022-12-18T05:16:00;16.25;;;12.20;;
5022;SDS011;2530;47.990;7.866;2022-12-18T05:18:26;15.17;;;11.97;;
5022;SDS011;2530;47.990;7.866;2022-12-18T05:20:51;16.92;;;11.82;;
5022;SDS011;2530;47.990;7.866;2022-12-18T05:23:18;16.85;;;12.27;;
5022;SDS011;2530;47.990;7.866;2022-12-18T05:25:51;15.63;;;11.30;;
5022;SDS011;2530;47.990;7.866;2022-12-18T05:28:22;16.85;;;11.80;;
5022;SDS011;2530;47.990;7.866;2022-12-18T05:30:52;15.80;;;11.93;;
5022;SDS011;2530;47.990;7.866;2022-12-18T05:33:20;16.30;;;10.70;;
5022;SDS011;2530;47.990;7.866;2022-12-18T05:35:50;14.77;;;10.82;;
5022;SDS011;2530;47.990;7.866;2022-12-18T05:38:17;14.90;;;10.50;;
5022;SDS011;2530;47.990;7.866;2022-12-18T05:40:43;16.17;;;10.73;;
5022;SDS011;2530;47.990;7.866;2022-12-18T05:43:09;16.05;;;11.02;;
5022;SDS011;2530;47.990;7.866;2022-12-18T05:45:38;13.57;;;10.57;;
5022;SDS011;2530;47.990;7.866;2022-12-18T05:48:04;14.25;;;10.50;;
5022;SDS011;2530;47.990;7.866;2022-12-18T05:50:30;13.82;;;10.27;;
5022;SDS011;2530;47.990;7.866;2022-12-18T05:52:58;14.00;;;10.40;;
5022;SDS011;2530;47.990;7.866;2022-12-18T05:55:23;14.90;;;9.90;;
5022;SDS011;2530;47.990;7.866;2022-12-18T05:57:49;15.10;;;10.67;;
5022;SDS011;2530;47.990;7.866;2022-12-18T06:00:15;13.93;;;9.70;;
5022;SDS011;2530;47.990;7.866;2022-12-18T06:02:40;13.32;;;9.55;;
5022;SDS011;2530;47.990;7.866;2022-12-18T06:05:06;14.77;;;10.77;;
5022;SDS011;2530;47.990;7.866;2022-12-18T06:07:32;15.25;;;10.30;;
5022;SDS011;2530;47.990;7.866;2022-12-18T06:09:57;14.10;;;9.63;;
5022;SDS011;2530;47.990;7.866;2022-12-18T06:12:23;12.17;;;9.10;;
5022;SDS011;2530;47.990;7.866;2022-12-18T06:14:48;14.97;;;9.73;;
5022;SDS011;2530;47.990;7.866;2022-12-18T06:17:14;13.47;;;9.80;;
5022;SDS011;2530;47.990;7.866;2022-12-18T06:19:39;14.15;;;9.93;;
5022;SDS011;2530;47.990;7.866;2022-12-18T06:22:05;15.75;;;10.82;;
5022;SDS011;2530;47.990;7.866;2022-12-18T06:24:30;15.80;;;10.77;;
5022;SDS011;2530;47.990;7.866;2022-12-18T06:26:56;13.23;;;10.07;;
5022;SDS011;2530;47.990;7.866;2022-12-18T06:29:21;13.40;;;9.90;;
5022;SDS011;2530;47.990;7.866;2022-12-18T06:31:47;13.05;;;9.45;;
5022;SDS011;2530;47.990;7.866;2022-12-18T06:34:12;13.30;;;9.13;;
5022;SDS011;2530;47.990;7.866;2022-12-18T06:36:38;14.10;;;10.30;;
5022;SDS011;2530;47.990;7.866;2022-12-18T06:39:03;13.10;;;8.77;;
5022;SDS011;2530;47.990;7.866;2022-12-18T06:41:29;14.27;;;9.70;;
5022;SDS011;2530;47.990;7.866;2022-12-18T06:43:55;13.80;;;9.40;;
5022;SDS011;2530;47.990;7.866;2022-12-18T06:46:20;14.98;;;10.70;;
5022;SDS011;2530;47.990;7.866;2022-12-18T06:48:46;12.13;;;9.80;;
5022;SDS011;2530;47.990;7.866;2022-12-18T06:51:15;12.83;;;9.60;;
5022;SDS011;2530;47.990;7.866;2022-12-18T06:53:42;12.60;;;8.75;;
5022;SDS011;2530;47.990;7.866;2022-12-18T06:56:07;12.50;;;9.43;;
5022;SDS011;2530;47.990;7.866;2022-12-18T06:58:33;12.48;;;9.13;;
5022;SDS011;2530;47.990;7.866;2022-12-18T07:00:59;11.90;;;9.83;;
5022;SDS011;2530;47.990;7.866;2022-12-18T07:03:26;12.05;;;8.65;;
5022;SDS011;2530;47.990;7.866;2022-12-18T07:05:52;9.55;;;7.97;;
5022;SDS011;2530;47.990;7.866;2022-12-18T07:08:17;12.95;;;9.20;;
5022;SDS011;2530;47.990;7.866;2022-12-18T07:10:43;13.20;;;8.93;;
5022;SDS011;2530;47.990;7.866;2022-12-18T07:13:09;12.77;;;9.47;;
5022;SDS011;2530;47.990;7.866;2022-12-18T07:15:34;11.07;;;7.78;;
5022;SDS011;2530;47.990;7.866;2022-12-18T07:18:00;12.13;;;9.20;;
5022;SDS011;2530;47.990;7.866;2022-12-18T07:20:25;10.47;;;7.90;;
5022;SDS011;2530;47.990;7.866;2022-12-18T07:22:51;12.93;;;8.90;;
5022;SDS011;2530;47.990;7.866;2022-12-18T07:25:16;9.53;;;7.60;;
5022;SDS011;2530;47.990;7.866;2022-12-18T07:27:42;10.50;;;7.90;;
5022;SDS011;2530;47.990;7.866;2022-12-18T07:30:07;11.48;;;8.00;;
5022;SDS011;2530;47.990;7.866;2022-12-18T07:32:34;10.93;;;8.20;;
5022;SDS011;2530;47.990;7.866;2022-12-18T07:34:59;12.57;;;8.47;;
5022;SDS011;2530;47.990;7.866;2022-12-18T07:37:25;11.07;;;7.93;;
5022;SDS011;2530;47.990;7.866;2022-12-18T07:39:50;8.43;;;7.20;;
5022;SDS011;2530;47.990;7.866;2022-12-18T07:42:16;12.55;;;7.47;;
5022;SDS011;2530;47.990;7.866;2022-12-18T07:45:00;10.63;;;7.80;;
5022;SDS011;2530;47.990;7.866;2022-12-18T07:47:26;8.77;;;7.30;;
5022;SDS011;2530;47.990;7.866;2022-12-18T07:49:52;9.90;;;7.47;;
5022;SDS011;2530;47.990;7.866;2022-12-18T07:52:18;11.32;;;7.80;;
5022;SDS011;2530;47.990;7.866;2022-12-18T07:54:43;10.50;;;7.83;;
5022;SDS011;2530;47.990;7.866;2022-12-18T07:57:10;10.52;;;8.52;;
5022;SDS011;2530;47.990;7.866;2022-12-18T07:59:36;12.82;;;9.07;;
5022;SDS011;2530;47.990;7.866;2022-12-18T08:02:02;11.93;;;8.80;;
5022;SDS011;2530;47.990;7.866;2022-12-18T08:04:27;12.63;;;8.90;;
5022;SDS011;2530;47.990;7.866;2022-12-18T08:06:53;12.50;;;8.53;;
5022;SDS011;2530;47.990;7.866;2022-12-18T08:09:19;12.95;;;9.40;;
5022;SDS011;2530;47.990;7.866;2022-12-18T08:11:44;13.07;;;10.15;;
5022;SDS011;2530;47.990;7.866;2022-12-18T08:14:10;15.90;;;11.40;;
5022;SDS011;2530;47.990;7.866;2022-12-18T08:16:35;19.30;;;12.63;;
5022;SDS011;2530;47.990;7.866;2022-12-18T08:19:01;19.50;;;12.60;;
5022;SDS011;2530;47.990;7.866;2022-12-18T08:21:30;17.27;;;12.63;;
5022;SDS011;2530;47.990;7.866;2022-12-18T08:24:35;17.40;;;11.98;;
5022;SDS011;2530;47.990;7.866;2022-12-18T08:27:00;16.47;;;11.40;;
5022;SDS011;2530;47.990;7.866;2022-12-18T08:29:26;15.13;;;11.37;;
5022;SDS011;2530;47.990;7.866;2022-12-18T08:31:52;17.07;;;11.63;;
5022;SDS011;2530;47.990;7.866;2022-12-18T08:34:17;14.55;;;11.65;;
5022;SDS011;2530;47.990;7.866;2022-12-18T08:36:43;15.25;;;11.30;;
5022;SDS011;2530;47.990;7.866;2022-12-18T08:39:08;14.95;;;10.30;;
5022;SDS011;2530;47.990;7.866;2022-12-18T08:41:34;13.93;;;10.80;;
5022;SDS011;2530;47.990;7.866;2022-12-18T08:43:59;17.03;;;11.60;;
5022;SDS011;2530;47.990;7.866;2022-12-18T08:46:43;15.40;;;11.50;;
5022;SDS011;2530;47.990;7.866;2022-12-18T08:49:09;16.37;;;11.00;;
5022;SDS011;2530;47.990;7.866;2022-12-18T08:51:36;16.42;;;11.00;;
5022;SDS011;2530;47.990;7.866;2022-12-18T08:54:03;17.38;;;12.60;;
5022;SDS011;2530;47.990;7.866;2022-12-18T08:56:29;15.32;;;12.40;;
5022;SDS011;2530;47.990;7.866;2022-12-18T08:58:55;17.33;;;12.40;;
5022;SDS011;2530;47.990;7.866;2022-12-18T09:01:21;15.50;;;11.70;;
5022;SDS011;2530;47.990;7.866;2022-12-18T09:03:48;17.58;;;12.07;;
5022;SDS011;2530;47.990;7.866;2022-12-18T09:06:15;15.25;;;12.70;;
5022;SDS011;2530;47.990;7.866;2022-12-18T09:08:44;18.70;;;13.10;;
5022;SDS011;2530;47.990;7.866;2022-12-18T09:11:14;17.55;;;12.57;;
5022;SDS011;2530;47.990;7.866;2022-12-18T09:13:44;17.33;;;12.50;;
5022;SDS011;2530;47.990;7.866;2022-12-18T09:16:09;16.90;;;12.98;;
5022;SDS011;2530;47.990;7.866;2022-12-18T09:18:35;16.85;;;12.80;;
5022;SDS011;2530;47.990;7.866;2022-12-18T09:21:07;19.13;;;12.57;;
5022;SDS011;2530;47.990;7.866;2022-12-18T09:23:36;14.10;;;11.47;;
5022;SDS011;2530;47.990;7.866;2022-12-18T09:26:02;15.07;;;12.15;;
5022;SDS011;2530;47.990;7.866;2022-12-18T09:28:28;17.83;;;13.23;;
5022;SDS011;2530;47.990;7.866;2022-12-18T09:30:53;17.70;;;12.60;;
5022;SDS011;2530;47.990;7.866;2022-12-18T09:33:19;19.33;;;11.97;;
5022;SDS011;2530;47.990;7.866;2022-12-18T09:35:45;18.95;;;13.75;;
5022;SDS011;2530;47.990;7.866;2022-12-18T09:38:12;17.55;;;12.38;;
5022;SDS011;2530;47.990;7.866;2022-12-18T09:40:44;21.25;;;13.98;;
5022;SDS011;2530;47.990;7.866;2022-12-18T09:43:16;16.17;;;13.05;;
5022;SDS011;2530;47.990;7.866;2022-12-18T09:45:46;20.63;;;14.43;;
5022;SDS011;2530;47.990;7.866;2022-12-18T09:48:19;14.70;;;11.52;;
5022;SDS011;2530;47.990;7.866;2022-12-18T09:50:57;17.20;;;13.18;;
5022;SDS011;2530;47.990;7.866;2022-12-18T09:53:37;18.33;;;12.98;;
5022;SDS011;2530;47.990;7.866;2022-12-18T09:56:06;17.30;;;13.90;;
5022;SDS011;2530;47.990;7.866;2022-12-18T10:01:18;18.60;;;13.70;;
5022;SDS011;2530;47.990;7.866;2022-12-18T10:03:47;18.27;;;13.80;;
5022;SDS011;2530;47.990;7.866;2022-12-18T10:06:15;18.65;;;13.15;;
5022;SDS011;2530;47.990;7.866;2022-12-18T10:12:07;19.05;;;14.60;;
5022;SDS011;2530;47.990;7.866;2022-12-18T10:14:51;21.85;;;15.45;;
5022;SDS011;2530;47.990;7.866;2022-12-18T10:17:22;19.53;;;14.10;;
5022;SDS011;2530;47.990;7.866;2022-12-18T10:19:51;18.75;;;14.07;;
5022;SDS011;2530;47.990;7.866;2022-12-18T10:22:36;18.15;;;13.70;;
5022;SDS011;2530;47.990;7.866;2022-12-18T10:25:27;18.30;;;12.77;;
5022;SDS011;2530;47.990;7.866;2022-12-18T10:28:12;17.85;;;13.80;;
5022;SDS011;2530;47.990;7.866;2022-12-18T10:30:42;17.83;;;12.52;;
5022;SDS011;2530;47.990;7.866;2022-12-18T10:33:12;16.90;;;12.93;;
5022;SDS011;2530;47.990;7.866;2022-12-18T10:35:44;15.88;;;12.15;;
5022;SDS011;2530;47.990;7.866;2022-12-18T10:40:54;15.73;;;13.07;;
5022;SDS011;2530;47.990;7.866;2022-12-18T10:43:24;15.37;;;12.00;;
5022;SDS011;2530;47.990;7.866;2022-12-18T10:46:12;12.93;;;11.30;;
5022;SDS011;2530;47.990;7.866;2022-12-18T10:48:39;11.70;;;9.80;;
5022;SDS011;2530;47.990;7.866;2022-12-18T10:51:27;11.40;;;9.35;;
5022;SDS011;2530;47.990;7.866;2022-12-18T10:54:05;12.63;;;10.70;;
5022;SDS011;2530;47.990;7.866;2022-12-18T10:56:39;11.65;;;9.90;;
5022;SDS011;2530;47.990;7.866;2022-12-18T10:59:14;12.67;;;10.10;;
5022;SDS011;2530;47.990;7.866;2022-12-18T11:04:23;11.45;;;9.38;;
5022;SDS011;2530;47.990;7.866;2022-12-18T11:09:20;12.00;;;9.63;;
5022;SDS011;2530;47.990;7.866;2022-12-18T11:11:58;11.45;;;9.93;;
5022;SDS011;2530;47.990;7.866;2022-12-18T11:14:30;14.38;;;12.70;;
5022;SDS011;2530;47.990;7.866;2022-12-18T11:16:59;17.90;;;14.50;;
5022;SDS011;2530;47.990;7.866;2022-12-18T11:21:59;19.80;;;15.38;;
5022;SDS011;2530;47.990;7.866;2022-12-18T11:26:55;21.35;;;15.88;;
5022;SDS011;2530;47.990;7.866;2022-12-18T11:29:30;21.30;;;15.85;;
5022;SDS011;2530;47.990;7.866;2022-12-18T11:32:34;25.15;;;16.40;;
5022;SDS011;2530;47.990;7.866;2022-12-18T11:35:17;21.00;;;16.45;;
5022;SDS011;2530;47.990;7.866;2022-12-18T11:37:46;21.80;;;16.60;;
5022;SDS011;2530;47.990;7.866;2022-12-18T11:40:20;25.20;;;17.23;;
5022;SDS011;2530;47.990;7.866;2022-12-18T11:43:02;24.73;;;18.27;;
5022;SDS011;2530;47.990;7.866;2022-12-18T11:45:38;27.63;;;18.85;;
5022;SDS011;2530;47.990;7.866;2022-12-18T11:48:23;23.27;;;18.02;;
5022;SDS011;2530;47.990;7.866;2022-12-18T11:50:56;25.80;;;18.20;;
5022;SDS011;2530;47.990;7.866;2022-12-18T11:53:25;21.48;;;16.30;;
5022;SDS011;2530;47.990;7.866;2022-12-18T11:58:52;26.13;;;17.83;;
5022;SDS011;2530;47.990;7.866;2022-12-18T12:16:17;22.85;;;17.95;;
5022;SDS011;2530;47.990;7.866;2022-12-18T12:21:41;22.38;;;18.00;;
5022;SDS011;2530;47.990;7.866;2022-12-18T12:24:30;24.00;;;18.70;;
5022;SDS011;2530;47.990;7.866;2022-12-18T12:27:26;24.83;;;19.55;;
5022;SDS011;2530;47.990;7.866;2022-12-18T12:30:06;24.20;;;18.40;;
5022;SDS011;2530;47.990;7.866;2022-12-18T12:40:23;24.63;;;18.25;;
5022;SDS011;2530;47.990;7.866;2022-12-18T12:42:54;26.90;;;19.57;;
5022;SDS011;2530;47.990;7.866;2022-12-18T12:45:51;27.50;;;19.10;;
5022;SDS011;2530;47.990;7.866;2022-12-18T12:48:32;26.55;;;18.90;;
5022;SDS011;2530;47.990;7.866;2022-12-18T12:50:59;27.77;;;18.42;;
5022;SDS011;2530;47.990;7.866;2022-12-18T12:53:33;21.88;;;17.30;;
5022;SDS011;2530;47.990;7.866;2022-12-18T12:56:01;25.48;;;18.50;;
5022;SDS011;2530;47.990;7.866;2022-12-18T13:01:08;27.38;;;17.95;;
5022;SDS011;2530;47.990;7.866;2022-12-18T13:03:54;23.65;;;18.55;;
5022;SDS011;2530;47.990;7.866;2022-12-18T13:09:14;24.40;;;17.30;;
5022;SDS011;2530;47.990;7.866;2022-12-18T13:11:40;27.73;;;18.60;;
5022;SDS011;2530;47.990;7.866;2022-12-18T13:14:37;25.48;;;18.20;;
5022;SDS011;2530;47.990;7.866;2022-12-18T13:19:48;27.75;;;21.75;;
5022;SDS011;2530;47.990;7.866;2022-12-18T13:22:22;32.15;;;23.80;;
5022;SDS011;2530;47.990;7.866;2022-12-18T13:24:50;27.20;;;21.75;;
5022;SDS011;2530;47.990;7.866;2022-12-18T13:43:53;26.90;;;19.13;;
5022;SDS011;2530;47.990;7.866;2022-12-18T13:46:27;21.60;;;16.33;;
5022;SDS011;2530;47.990;7.866;2022-12-18T13:51:25;18.98;;;15.57;;
5022;SDS011;2530;47.990;7.866;2022-12-18T13:54:01;18.02;;;15.00;;
5022;SDS011;2530;47.990;7.866;2022-12-18T13:56:42;18.92;;;13.70;;
5022;SDS011;2530;47.990;7.866;2022-12-18T14:01:45;17.45;;;13.18;;
5022;SDS011;2530;47.990;7.866;2022-12-18T14:04:29;17.23;;;13.80;;
5022;SDS011;2530;47.990;7.866;2022-12-18T14:06:57;16.73;;;12.30;;
5022;SDS011;2530;47.990;7.866;2022-12-18T14:09:29;15.57;;;12.15;;
5022;SDS011;2530;47.990;7.866;2022-12-18T14:11:56;15.32;;;11.32;;
5022;SDS011;2530;47.990;7.866;2022-12-18T14:14:42;12.48;;;10.82;;
5022;SDS011;2530;47.990;7.866;2022-12-18T14:17:10;15.75;;;11.13;;
5022;SDS011;2530;47.990;7.866;2022-12-18T14:19:38;14.02;;;11.70;;
5022;SDS011;2530;47.990;7.866;2022-12-18T14:22:14;16.40;;;11.98;;
5022;SDS011;2530;47.990;7.866;2022-12-18T14:25:05;15.20;;;11.48;;
5022;SDS011;2530;47.990;7.866;2022-12-18T14:28:13;15.30;;;11.30;;
5022;SDS011;2530;47.990;7.866;2022-12-18T14:30:36;16.45;;;11.23;;
5022;SDS011;2530;47.990;7.866;2022-12-18T14:33:13;15.15;;;12.65;;
5022;SDS011;2530;47.990;7.866;2022-12-18T14:35:43;17.02;;;13.25;;
5022;SDS011;2530;47.990;7.866;2022-12-18T14:38:29;17.52;;;13.20;;
5022;SDS011;2530;47.990;7.866;2022-12-18T14:43:27;15.55;;;12.65;;
5022;SDS011;2530;47.990;7.866;2022-12-18T14:45:55;17.10;;;13.02;;
5022;SDS011;2530;47.990;7.866;2022-12-18T14:51:02;17.45;;;14.43;;
5022;SDS011;2530;47.990;7.866;2022-12-18T14:53:36;19.53;;;14.37;;
5022;SDS011;2530;47.990;7.866;2022-12-18T14:56:17;21.13;;;16.25;;
5022;SDS011;2530;47.990;7.866;2022-12-18T14:59:12;20.77;;;16.23;;
5022;SDS011;2530;47.990;7.866;2022-12-18T15:01:39;23.13;;;17.08;;
5022;SDS011;2530;47.990;7.866;2022-12-18T15:04:32;20.00;;;16.90;;
5022;SDS011;2530;47.990;7.866;2022-12-18T15:12:36;23.05;;;17.77;;
5022;SDS011;2530;47.990;7.866;2022-12-18T15:15:05;23.23;;;18.75;;
5022;SDS011;2530;47.990;7.866;2022-12-18T15:20:39;25.95;;;19.23;;
5022;SDS011;2530;47.990;7.866;2022-12-18T15:23:22;23.77;;;18.27;;
5022;SDS011;2530;47.990;7.866;2022-12-18T15:25:56;23.23;;;17.88;;
5022;SDS011;2530;47.990;7.866;2022-12-18T15:28:39;19.88;;;16.48;;
5022;SDS011;2530;47.990;7.866;2022-12-18T15:33:46;18.93;;;15.60;;
5022;SDS011;2530;47.990;7.866;2022-12-18T15:36:28;17.10;;;13.35;;
5022;SDS011;2530;47.990;7.866;2022-12-18T15:38:55;15.80;;;12.65;;
5022;SDS011;2530;47.990;7.866;2022-12-18T15:41:22;19.02;;;15.20;;
5022;SDS011;2530;47.990;7.866;2022-12-18T15:43:49;17.20;;;14.43;;
5022;SDS011;2530;47.990;7.866;2022-12-18T15:46:17;19.67;;;15.43;;
5022;SDS011;2530;47.990;7.866;2022-12-18T15:48:52;20.25;;;15.52;;
5022;SDS011;2530;47.990;7.866;2022-12-18T15:51:21;18.17;;;14.48;;
5022;SDS011;2530;47.990;7.866;2022-12-18T15:53:55;20.27;;;16.30;;
5022;SDS011;2530;47.990;7.866;2022-12-18T15:56:23;18.60;;;15.75;;
5022;SDS011;2530;47.990;7.866;2022-12-18T15:59:11;22.20;;;17.45;;
5022;SDS011;2530;47.990;7.866;2022-12-18T16:01:45;21.52;;;17.23;;
5022;SDS011;2530;47.990;7.866;2022-12-18T16:04:13;20.30;;;16.67;;
5022;SDS011;2530;47.990;7.866;2022-12-18T16:06:41;22.27;;;17.98;;
5022;SDS011;2530;47.990;7.866;2022-12-18T16:09:07;21.63;;;16.93;;
5022;SDS011;2530;47.990;7.866;2022-12-18T16:11:33;22.83;;;17.98;;
5022;SDS011;2530;47.990;7.866;2022-12-18T16:14:04;21.17;;;17.80;;
5022;SDS011;2530;47.990;7.866;2022-12-18T16:16:52;25.77;;;20.17;;
5022;SDS011;2530;47.990;7.866;2022-12-18T16:19:22;30.65;;;23.25;;
5022;SDS011;2530;47.990;7.866;2022-12-18T16:21:48;29.75;;;21.25;;
5022;SDS011;2530;47.990;7.866;2022-12-18T16:24:19;25.58;;;19.50;;
5022;SDS011;2530;47.990;7.866;2022-12-18T16:26:47;26.70;;;21.63;;
5022;SDS011;2530;47.990;7.866;2022-12-18T16:29:13;24.35;;;19.52;;
5022;SDS011;2530;47.990;7.866;2022-12-18T16:31:39;24.73;;;18.92;;
5022;SDS011;2530;47.990;7.866;2022-12-18T16:34:13;24.08;;;19.48;;
5022;SDS011;2530;47.990;7.866;2022-12-18T16:36:47;25.97;;;21.10;;
5022;SDS011;2530;47.990;7.866;2022-12-18T16:39:13;26.92;;;20.55;;
5022;SDS011;2530;47.990;7.866;2022-12-18T16:41:39;27.50;;;20.90;;
5022;SDS011;2530;47.990;7.866;2022-12-18T16:44:05;25.23;;;20.10;;
5022;SDS011;2530;47.990;7.866;2022-12-18T16:46:30;27.07;;;19.93;;
5022;SDS011;2530;47.990;7.866;2022-12-18T16:48:58;27.70;;;21.33;;
5022;SDS011;2530;47.990;7.866;2022-12-18T16:51:24;26.10;;;20.23;;
5022;SDS011;2530;47.990;7.866;2022-12-18T16:53:51;24.65;;;20.55;;
5022;SDS011;2530;47.990;7.866;2022-12-18T16:56:18;25.23;;;20.50;;
5022;SDS011;2530;47.990;7.866;2022-12-18T16:58:48;28.77;;;22.00;;
5022;SDS011;2530;47.990;7.866;2022-12-18T17:01:15;28.75;;;20.23;;
5022;SDS011;2530;47.990;7.866;2022-12-18T17:03:40;24.67;;;20.70;;
5022;SDS011;2530;47.990;7.866;2022-12-18T17:06:06;26.00;;;20.50;;
5022;SDS011;2530;47.990;7.866;2022-12-18T17:08:32;25.87;;;21.37;;
5022;SDS011;2530;47.990;7.866;2022-12-18T17:11:04;24.17;;;20.20;;
5022;SDS011;2530;47.990;7.866;2022-12-18T17:13:31;26.70;;;21.50;;
5022;SDS011;2530;47.990;7.866;2022-12-18T17:16:04;30.27;;;22.80;;